Aviation Digital Data Service (ADDS)

Output produced by METARs form (0638 UTC 27 March 2017)
found at http://www.aviationweather.gov/adds/metars/
 
DBBB 270600Z 22011KT 8000 SCT012 28/26 Q1008 NOSIG
TAF DBBB 270500Z 2706/2812 22010KT 9999 SCT012 
     TEMPO 2713/2719 TS BKN012 FEW023CB